sensor_id;sensor_type;location;lat;lon;timestamp;P1;durP1;ratioP1;P2;durP2;ratioP2
74223;SDS011;62585;49.706;18.216;2023-09-07T00:00:22;8.77;;;5.57;;
74223;SDS011;62585;49.706;18.216;2023-09-07T00:03:08;9.63;;;5.78;;
74223;SDS011;62585;49.706;18.216;2023-09-07T00:05:34;7.40;;;5.65;;
74223;SDS011;62585;49.706;18.216;2023-09-07T00:08:00;6.53;;;5.20;;
74223;SDS011;62585;49.706;18.216;2023-09-07T00:10:26;9.38;;;5.40;;
74223;SDS011;62585;49.706;18.216;2023-09-07T00:12:52;10.70;;;6.38;;
74223;SDS011;62585;49.706;18.216;2023-09-07T00:15:17;8.13;;;5.43;;
74223;SDS011;62585;49.706;18.216;2023-09-07T00:17:46;9.82;;;5.70;;
74223;SDS011;62585;49.706;18.216;2023-09-07T00:20:12;9.57;;;5.82;;
74223;SDS011;62585;49.706;18.216;2023-09-07T00:22:41;8.98;;;4.80;;
74223;SDS011;62585;49.706;18.216;2023-09-07T00:25:07;10.15;;;5.50;;
74223;SDS011;62585;49.706;18.216;2023-09-07T00:30:00;10.27;;;5.75;;
74223;SDS011;62585;49.706;18.216;2023-09-07T00:32:26;6.15;;;4.88;;
74223;SDS011;62585;49.706;18.216;2023-09-07T00:34:51;7.93;;;4.72;;
74223;SDS011;62585;49.706;18.216;2023-09-07T00:37:17;9.85;;;6.10;;
74223;SDS011;62585;49.706;18.216;2023-09-07T00:39:43;9.40;;;5.13;;
74223;SDS011;62585;49.706;18.216;2023-09-07T00:42:09;9.55;;;5.75;;
74223;SDS011;62585;49.706;18.216;2023-09-07T00:44:34;8.45;;;5.03;;
74223;SDS011;62585;49.706;18.216;2023-09-07T00:47:00;10.23;;;6.20;;
74223;SDS011;62585;49.706;18.216;2023-09-07T00:49:26;9.13;;;5.63;;
74223;SDS011;62585;49.706;18.216;2023-09-07T00:51:52;9.45;;;5.80;;
74223;SDS011;62585;49.706;18.216;2023-09-07T00:54:18;9.60;;;5.60;;
74223;SDS011;62585;49.706;18.216;2023-09-07T00:56:44;8.35;;;5.85;;
74223;SDS011;62585;49.706;18.216;2023-09-07T00:59:11;9.13;;;5.95;;
74223;SDS011;62585;49.706;18.216;2023-09-07T01:01:38;8.93;;;5.10;;
74223;SDS011;62585;49.706;18.216;2023-09-07T01:04:04;8.98;;;5.47;;
74223;SDS011;62585;49.706;18.216;2023-09-07T01:06:30;8.48;;;4.97;;
74223;SDS011;62585;49.706;18.216;2023-09-07T01:09:03;8.30;;;5.18;;
74223;SDS011;62585;49.706;18.216;2023-09-07T01:11:36;10.18;;;5.55;;
74223;SDS011;62585;49.706;18.216;2023-09-07T01:14:03;8.32;;;5.50;;
74223;SDS011;62585;49.706;18.216;2023-09-07T01:16:30;7.60;;;5.38;;
74223;SDS011;62585;49.706;18.216;2023-09-07T01:18:59;9.40;;;5.30;;
74223;SDS011;62585;49.706;18.216;2023-09-07T01:21:26;8.07;;;5.53;;
74223;SDS011;62585;49.706;18.216;2023-09-07T01:26:19;7.43;;;5.07;;
74223;SDS011;62585;49.706;18.216;2023-09-07T01:28:45;10.75;;;5.28;;
74223;SDS011;62585;49.706;18.216;2023-09-07T01:31:11;8.63;;;5.30;;
74223;SDS011;62585;49.706;18.216;2023-09-07T01:33:37;8.80;;;5.25;;
74223;SDS011;62585;49.706;18.216;2023-09-07T01:36:03;9.60;;;5.70;;
74223;SDS011;62585;49.706;18.216;2023-09-07T01:38:29;8.32;;;4.70;;
74223;SDS011;62585;49.706;18.216;2023-09-07T01:40:55;9.10;;;5.97;;
74223;SDS011;62585;49.706;18.216;2023-09-07T01:43:20;9.48;;;4.97;;
74223;SDS011;62585;49.706;18.216;2023-09-07T01:45:46;9.13;;;5.32;;
74223;SDS011;62585;49.706;18.216;2023-09-07T01:48:13;7.00;;;4.72;;
74223;SDS011;62585;49.706;18.216;2023-09-07T01:50:39;8.85;;;5.32;;
74223;SDS011;62585;49.706;18.216;2023-09-07T01:53:05;8.25;;;5.00;;
74223;SDS011;62585;49.706;18.216;2023-09-07T01:55:31;10.77;;;5.25;;
74223;SDS011;62585;49.706;18.216;2023-09-07T01:57:57;10.60;;;5.35;;
74223;SDS011;62585;49.706;18.216;2023-09-07T02:00:23;8.32;;;5.47;;
74223;SDS011;62585;49.706;18.216;2023-09-07T02:02:49;9.20;;;4.93;;
74223;SDS011;62585;49.706;18.216;2023-09-07T02:05:15;8.32;;;5.10;;
74223;SDS011;62585;49.706;18.216;2023-09-07T02:07:41;9.07;;;5.85;;
74223;SDS011;62585;49.706;18.216;2023-09-07T02:12:45;9.40;;;5.22;;
74223;SDS011;62585;49.706;18.216;2023-09-07T02:15:11;10.35;;;5.68;;
74223;SDS011;62585;49.706;18.216;2023-09-07T02:17:37;11.20;;;5.82;;
74223;SDS011;62585;49.706;18.216;2023-09-07T02:20:03;8.93;;;5.47;;
74223;SDS011;62585;49.706;18.216;2023-09-07T02:22:35;8.73;;;5.68;;
74223;SDS011;62585;49.706;18.216;2023-09-07T02:25:02;10.32;;;5.47;;
74223;SDS011;62585;49.706;18.216;2023-09-07T02:27:28;9.00;;;5.50;;
74223;SDS011;62585;49.706;18.216;2023-09-07T02:29:54;8.82;;;4.95;;
74223;SDS011;62585;49.706;18.216;2023-09-07T02:32:20;7.70;;;4.47;;
74223;SDS011;62585;49.706;18.216;2023-09-07T02:34:46;7.13;;;4.80;;
74223;SDS011;62585;49.706;18.216;2023-09-07T02:37:11;7.82;;;5.30;;
74223;SDS011;62585;49.706;18.216;2023-09-07T02:39:40;7.90;;;5.63;;
74223;SDS011;62585;49.706;18.216;2023-09-07T02:42:06;7.10;;;5.03;;
74223;SDS011;62585;49.706;18.216;2023-09-07T02:44:32;10.70;;;5.90;;
74223;SDS011;62585;49.706;18.216;2023-09-07T02:46:57;8.13;;;5.28;;
74223;SDS011;62585;49.706;18.216;2023-09-07T02:49:23;9.77;;;6.18;;
74223;SDS011;62585;49.706;18.216;2023-09-07T02:51:49;8.27;;;5.75;;
74223;SDS011;62585;49.706;18.216;2023-09-07T02:54:15;9.48;;;5.47;;
74223;SDS011;62585;49.706;18.216;2023-09-07T02:56:41;10.88;;;6.55;;
74223;SDS011;62585;49.706;18.216;2023-09-07T02:59:07;8.68;;;5.78;;
74223;SDS011;62585;49.706;18.216;2023-09-07T03:01:33;8.48;;;6.07;;
74223;SDS011;62585;49.706;18.216;2023-09-07T03:03:59;12.95;;;5.65;;
74223;SDS011;62585;49.706;18.216;2023-09-07T03:06:25;7.68;;;4.95;;
74223;SDS011;62585;49.706;18.216;2023-09-07T03:08:51;8.50;;;5.95;;
74223;SDS011;62585;49.706;18.216;2023-09-07T03:11:18;10.07;;;6.10;;
74223;SDS011;62585;49.706;18.216;2023-09-07T03:13:43;9.38;;;5.50;;
74223;SDS011;62585;49.706;18.216;2023-09-07T03:16:10;10.60;;;5.95;;
74223;SDS011;62585;49.706;18.216;2023-09-07T03:18:36;8.90;;;5.32;;
74223;SDS011;62585;49.706;18.216;2023-09-07T03:21:02;9.63;;;6.30;;
74223;SDS011;62585;49.706;18.216;2023-09-07T03:23:29;9.35;;;5.50;;
74223;SDS011;62585;49.706;18.216;2023-09-07T03:28:23;8.65;;;5.07;;
74223;SDS011;62585;49.706;18.216;2023-09-07T03:30:51;8.57;;;5.28;;
74223;SDS011;62585;49.706;18.216;2023-09-07T03:33:20;11.30;;;5.63;;
74223;SDS011;62585;49.706;18.216;2023-09-07T03:35:45;7.47;;;5.20;;
74223;SDS011;62585;49.706;18.216;2023-09-07T03:38:13;8.80;;;5.00;;
74223;SDS011;62585;49.706;18.216;2023-09-07T03:40:39;7.50;;;5.00;;
74223;SDS011;62585;49.706;18.216;2023-09-07T03:43:05;10.60;;;5.20;;
74223;SDS011;62585;49.706;18.216;2023-09-07T03:45:31;7.63;;;5.20;;
74223;SDS011;62585;49.706;18.216;2023-09-07T03:47:57;7.15;;;5.03;;
74223;SDS011;62585;49.706;18.216;2023-09-07T03:50:23;8.52;;;5.72;;
74223;SDS011;62585;49.706;18.216;2023-09-07T03:52:49;10.60;;;6.05;;
74223;SDS011;62585;49.706;18.216;2023-09-07T03:55:14;10.70;;;5.65;;
74223;SDS011;62585;49.706;18.216;2023-09-07T03:57:41;8.25;;;5.55;;
74223;SDS011;62585;49.706;18.216;2023-09-07T04:00:07;8.45;;;5.90;;
74223;SDS011;62585;49.706;18.216;2023-09-07T04:02:34;9.43;;;6.03;;
74223;SDS011;62585;49.706;18.216;2023-09-07T04:05:00;8.30;;;5.32;;
74223;SDS011;62585;49.706;18.216;2023-09-07T04:07:31;8.65;;;5.35;;
74223;SDS011;62585;49.706;18.216;2023-09-07T04:09:57;9.68;;;5.40;;
74223;SDS011;62585;49.706;18.216;2023-09-07T04:12:23;9.75;;;5.82;;
74223;SDS011;62585;49.706;18.216;2023-09-07T04:14:48;8.88;;;5.55;;
74223;SDS011;62585;49.706;18.216;2023-09-07T04:17:14;8.80;;;5.15;;
74223;SDS011;62585;49.706;18.216;2023-09-07T04:19:40;10.43;;;5.63;;
74223;SDS011;62585;49.706;18.216;2023-09-07T04:22:06;8.98;;;5.05;;
74223;SDS011;62585;49.706;18.216;2023-09-07T04:24:33;8.82;;;5.13;;
74223;SDS011;62585;49.706;18.216;2023-09-07T04:27:00;8.82;;;5.82;;
74223;SDS011;62585;49.706;18.216;2023-09-07T04:31:52;9.18;;;5.47;;
74223;SDS011;62585;49.706;18.216;2023-09-07T04:34:18;10.23;;;5.60;;
74223;SDS011;62585;49.706;18.216;2023-09-07T04:36:44;8.57;;;5.60;;
74223;SDS011;62585;49.706;18.216;2023-09-07T04:39:10;7.95;;;5.60;;
74223;SDS011;62585;49.706;18.216;2023-09-07T04:41:36;7.20;;;4.57;;
74223;SDS011;62585;49.706;18.216;2023-09-07T04:44:02;7.10;;;4.85;;
74223;SDS011;62585;49.706;18.216;2023-09-07T04:46:28;8.50;;;5.38;;
74223;SDS011;62585;49.706;18.216;2023-09-07T04:48:54;8.50;;;5.45;;
74223;SDS011;62585;49.706;18.216;2023-09-07T04:51:20;8.10;;;5.90;;
74223;SDS011;62585;49.706;18.216;2023-09-07T04:56:13;8.10;;;5.03;;
74223;SDS011;62585;49.706;18.216;2023-09-07T04:58:38;10.80;;;5.72;;
74223;SDS011;62585;49.706;18.216;2023-09-07T05:01:05;8.27;;;5.50;;
74223;SDS011;62585;49.706;18.216;2023-09-07T05:03:34;7.35;;;4.63;;
74223;SDS011;62585;49.706;18.216;2023-09-07T05:06:00;8.23;;;5.32;;
74223;SDS011;62585;49.706;18.216;2023-09-07T05:08:28;7.90;;;5.15;;
74223;SDS011;62585;49.706;18.216;2023-09-07T05:10:58;9.38;;;5.43;;
74223;SDS011;62585;49.706;18.216;2023-09-07T05:13:25;8.90;;;5.28;;
74223;SDS011;62585;49.706;18.216;2023-09-07T05:15:53;8.68;;;5.93;;
74223;SDS011;62585;49.706;18.216;2023-09-07T05:18:20;8.18;;;5.82;;
74223;SDS011;62585;49.706;18.216;2023-09-07T05:20:46;9.95;;;6.72;;
74223;SDS011;62585;49.706;18.216;2023-09-07T05:23:19;9.13;;;6.22;;
74223;SDS011;62585;49.706;18.216;2023-09-07T05:25:46;9.13;;;5.45;;
74223;SDS011;62585;49.706;18.216;2023-09-07T05:28:13;9.45;;;6.40;;
74223;SDS011;62585;49.706;18.216;2023-09-07T05:30:41;9.18;;;5.85;;
74223;SDS011;62585;49.706;18.216;2023-09-07T05:33:10;8.45;;;5.75;;
74223;SDS011;62585;49.706;18.216;2023-09-07T05:35:38;9.02;;;6.35;;
74223;SDS011;62585;49.706;18.216;2023-09-07T05:38:04;9.38;;;6.32;;
74223;SDS011;62585;49.706;18.216;2023-09-07T05:40:37;9.45;;;6.32;;
74223;SDS011;62585;49.706;18.216;2023-09-07T05:43:04;10.52;;;6.90;;
74223;SDS011;62585;49.706;18.216;2023-09-07T05:45:30;11.00;;;6.55;;
74223;SDS011;62585;49.706;18.216;2023-09-07T05:47:57;11.70;;;6.55;;
74223;SDS011;62585;49.706;18.216;2023-09-07T05:50:23;9.68;;;6.47;;
74223;SDS011;62585;49.706;18.216;2023-09-07T05:52:49;10.45;;;6.53;;
74223;SDS011;62585;49.706;18.216;2023-09-07T05:55:15;12.27;;;6.82;;
74223;SDS011;62585;49.706;18.216;2023-09-07T05:57:41;12.15;;;6.78;;
74223;SDS011;62585;49.706;18.216;2023-09-07T06:00:07;11.23;;;7.07;;
74223;SDS011;62585;49.706;18.216;2023-09-07T06:02:33;13.40;;;7.15;;
74223;SDS011;62585;49.706;18.216;2023-09-07T06:04:59;12.38;;;7.55;;
74223;SDS011;62585;49.706;18.216;2023-09-07T06:07:25;13.68;;;7.22;;
74223;SDS011;62585;49.706;18.216;2023-09-07T06:09:51;13.15;;;8.20;;
74223;SDS011;62585;49.706;18.216;2023-09-07T06:12:17;14.32;;;8.15;;
74223;SDS011;62585;49.706;18.216;2023-09-07T06:14:44;13.07;;;7.75;;
74223;SDS011;62585;49.706;18.216;2023-09-07T06:17:11;13.57;;;7.28;;
74223;SDS011;62585;49.706;18.216;2023-09-07T06:19:38;14.95;;;8.13;;
74223;SDS011;62585;49.706;18.216;2023-09-07T06:22:03;17.38;;;9.65;;
74223;SDS011;62585;49.706;18.216;2023-09-07T06:24:29;14.60;;;8.65;;
74223;SDS011;62585;49.706;18.216;2023-09-07T06:26:55;16.23;;;9.73;;
74223;SDS011;62585;49.706;18.216;2023-09-07T06:29:21;15.73;;;9.35;;
74223;SDS011;62585;49.706;18.216;2023-09-07T06:31:47;15.82;;;10.13;;
74223;SDS011;62585;49.706;18.216;2023-09-07T06:34:15;17.00;;;10.13;;
74223;SDS011;62585;49.706;18.216;2023-09-07T06:36:41;15.10;;;10.13;;
74223;SDS011;62585;49.706;18.216;2023-09-07T06:39:07;23.20;;;11.00;;
74223;SDS011;62585;49.706;18.216;2023-09-07T06:41:33;16.73;;;10.93;;
74223;SDS011;62585;49.706;18.216;2023-09-07T06:43:59;19.63;;;11.82;;
74223;SDS011;62585;49.706;18.216;2023-09-07T06:46:24;25.92;;;14.65;;
74223;SDS011;62585;49.706;18.216;2023-09-07T06:48:50;26.13;;;16.08;;
74223;SDS011;62585;49.706;18.216;2023-09-07T06:51:16;26.10;;;13.85;;
74223;SDS011;62585;49.706;18.216;2023-09-07T06:53:42;22.90;;;14.93;;
74223;SDS011;62585;49.706;18.216;2023-09-07T06:56:08;21.00;;;13.45;;
74223;SDS011;62585;49.706;18.216;2023-09-07T06:58:34;23.83;;;13.98;;
74223;SDS011;62585;49.706;18.216;2023-09-07T07:01:00;24.98;;;14.52;;
74223;SDS011;62585;49.706;18.216;2023-09-07T07:03:28;22.95;;;14.38;;
74223;SDS011;62585;49.706;18.216;2023-09-07T07:05:54;21.30;;;13.77;;
74223;SDS011;62585;49.706;18.216;2023-09-07T07:08:21;22.50;;;14.00;;
74223;SDS011;62585;49.706;18.216;2023-09-07T07:10:47;24.77;;;14.30;;
74223;SDS011;62585;49.706;18.216;2023-09-07T07:13:13;26.65;;;14.35;;
74223;SDS011;62585;49.706;18.216;2023-09-07T07:15:39;25.65;;;15.82;;
74223;SDS011;62585;49.706;18.216;2023-09-07T07:18:05;23.15;;;14.30;;
74223;SDS011;62585;49.706;18.216;2023-09-07T07:20:34;24.90;;;14.43;;
74223;SDS011;62585;49.706;18.216;2023-09-07T07:23:01;27.27;;;15.85;;
74223;SDS011;62585;49.706;18.216;2023-09-07T07:25:27;30.80;;;18.02;;
74223;SDS011;62585;49.706;18.216;2023-09-07T07:27:53;30.83;;;17.00;;
74223;SDS011;62585;49.706;18.216;2023-09-07T07:30:19;27.35;;;16.38;;
74223;SDS011;62585;49.706;18.216;2023-09-07T07:32:45;27.45;;;15.68;;
74223;SDS011;62585;49.706;18.216;2023-09-07T07:35:10;30.92;;;16.70;;
74223;SDS011;62585;49.706;18.216;2023-09-07T07:37:37;30.17;;;17.30;;
74223;SDS011;62585;49.706;18.216;2023-09-07T07:40:02;27.08;;;15.43;;
74223;SDS011;62585;49.706;18.216;2023-09-07T07:42:30;28.77;;;17.17;;
74223;SDS011;62585;49.706;18.216;2023-09-07T07:44:55;23.67;;;13.95;;
74223;SDS011;62585;49.706;18.216;2023-09-07T07:47:24;26.20;;;14.35;;
74223;SDS011;62585;49.706;18.216;2023-09-07T07:49:51;22.85;;;13.38;;
74223;SDS011;62585;49.706;18.216;2023-09-07T07:52:17;28.73;;;15.20;;
74223;SDS011;62585;49.706;18.216;2023-09-07T07:54:43;25.15;;;14.93;;
74223;SDS011;62585;49.706;18.216;2023-09-07T07:57:09;26.05;;;15.25;;
74223;SDS011;62585;49.706;18.216;2023-09-07T07:59:36;26.10;;;14.25;;
74223;SDS011;62585;49.706;18.216;2023-09-07T08:02:02;27.00;;;14.68;;
74223;SDS011;62585;49.706;18.216;2023-09-07T08:04:28;24.40;;;14.27;;
74223;SDS011;62585;49.706;18.216;2023-09-07T08:06:54;28.00;;;14.18;;
74223;SDS011;62585;49.706;18.216;2023-09-07T08:09:23;25.77;;;13.75;;
74223;SDS011;62585;49.706;18.216;2023-09-07T08:11:49;21.90;;;13.68;;
74223;SDS011;62585;49.706;18.216;2023-09-07T08:14:16;22.13;;;14.07;;
74223;SDS011;62585;49.706;18.216;2023-09-07T08:16:42;22.15;;;13.93;;
74223;SDS011;62585;49.706;18.216;2023-09-07T08:19:08;25.00;;;13.48;;
74223;SDS011;62585;49.706;18.216;2023-09-07T08:21:34;25.15;;;15.07;;
74223;SDS011;62585;49.706;18.216;2023-09-07T08:24:00;26.38;;;13.57;;
74223;SDS011;62585;49.706;18.216;2023-09-07T08:26:28;21.15;;;12.80;;
74223;SDS011;62585;49.706;18.216;2023-09-07T08:28:54;21.45;;;12.00;;
74223;SDS011;62585;49.706;18.216;2023-09-07T08:31:20;24.02;;;13.68;;
74223;SDS011;62585;49.706;18.216;2023-09-07T08:33:48;25.60;;;13.52;;
74223;SDS011;62585;49.706;18.216;2023-09-07T08:36:16;20.50;;;11.73;;
74223;SDS011;62585;49.706;18.216;2023-09-07T08:38:47;21.98;;;11.77;;
74223;SDS011;62585;49.706;18.216;2023-09-07T08:41:13;25.50;;;13.25;;
74223;SDS011;62585;49.706;18.216;2023-09-07T08:43:44;17.60;;;10.95;;
74223;SDS011;62585;49.706;18.216;2023-09-07T08:46:15;23.38;;;12.68;;
74223;SDS011;62585;49.706;18.216;2023-09-07T08:48:45;21.73;;;11.77;;
74223;SDS011;62585;49.706;18.216;2023-09-07T08:51:13;21.80;;;12.05;;
74223;SDS011;62585;49.706;18.216;2023-09-07T08:53:40;19.67;;;11.00;;
74223;SDS011;62585;49.706;18.216;2023-09-07T08:56:11;20.73;;;12.45;;
74223;SDS011;62585;49.706;18.216;2023-09-07T08:58:38;22.02;;;12.02;;
74223;SDS011;62585;49.706;18.216;2023-09-07T09:01:07;25.98;;;12.40;;
74223;SDS011;62585;49.706;18.216;2023-09-07T09:03:38;25.98;;;12.57;;
74223;SDS011;62585;49.706;18.216;2023-09-07T09:06:04;25.30;;;13.15;;
74223;SDS011;62585;49.706;18.216;2023-09-07T09:08:43;30.58;;;16.45;;
74223;SDS011;62585;49.706;18.216;2023-09-07T09:11:22;30.08;;;13.98;;
74223;SDS011;62585;49.706;18.216;2023-09-07T09:13:49;30.42;;;14.18;;
74223;SDS011;62585;49.706;18.216;2023-09-07T09:16:18;29.92;;;15.30;;
74223;SDS011;62585;49.706;18.216;2023-09-07T09:18:48;34.42;;;16.63;;
74223;SDS011;62585;49.706;18.216;2023-09-07T09:21:21;35.67;;;16.52;;
74223;SDS011;62585;49.706;18.216;2023-09-07T09:23:49;34.33;;;16.45;;
74223;SDS011;62585;49.706;18.216;2023-09-07T09:26:17;30.63;;;15.07;;
74223;SDS011;62585;49.706;18.216;2023-09-07T09:28:43;42.22;;;17.02;;
74223;SDS011;62585;49.706;18.216;2023-09-07T09:31:14;31.23;;;13.95;;
74223;SDS011;62585;49.706;18.216;2023-09-07T09:33:40;26.30;;;14.30;;
74223;SDS011;62585;49.706;18.216;2023-09-07T09:36:07;20.58;;;11.57;;
74223;SDS011;62585;49.706;18.216;2023-09-07T09:38:34;16.38;;;9.38;;
74223;SDS011;62585;49.706;18.216;2023-09-07T09:41:01;15.63;;;9.50;;
74223;SDS011;62585;49.706;18.216;2023-09-07T09:43:30;14.50;;;7.90;;
74223;SDS011;62585;49.706;18.216;2023-09-07T09:45:56;13.90;;;7.20;;
74223;SDS011;62585;49.706;18.216;2023-09-07T09:48:25;13.95;;;7.07;;
74223;SDS011;62585;49.706;18.216;2023-09-07T09:50:53;10.25;;;6.65;;
74223;SDS011;62585;49.706;18.216;2023-09-07T09:53:19;9.80;;;6.70;;
74223;SDS011;62585;49.706;18.216;2023-09-07T09:55:46;11.02;;;6.55;;
74223;SDS011;62585;49.706;18.216;2023-09-07T09:58:18;10.00;;;5.82;;
74223;SDS011;62585;49.706;18.216;2023-09-07T10:00:45;13.30;;;7.30;;
74223;SDS011;62585;49.706;18.216;2023-09-07T10:03:22;12.68;;;7.18;;
74223;SDS011;62585;49.706;18.216;2023-09-07T10:05:56;10.35;;;6.80;;
74223;SDS011;62585;49.706;18.216;2023-09-07T10:08:32;12.55;;;6.68;;
74223;SDS011;62585;49.706;18.216;2023-09-07T10:10:58;10.18;;;6.45;;
74223;SDS011;62585;49.706;18.216;2023-09-07T10:13:29;11.60;;;6.63;;
74223;SDS011;62585;49.706;18.216;2023-09-07T10:16:00;15.55;;;8.43;;
74223;SDS011;62585;49.706;18.216;2023-09-07T10:18:36;15.95;;;9.40;;
74223;SDS011;62585;49.706;18.216;2023-09-07T10:21:04;17.25;;;9.13;;
74223;SDS011;62585;49.706;18.216;2023-09-07T10:26:16;17.92;;;10.30;;
74223;SDS011;62585;49.706;18.216;2023-09-07T10:28:43;16.17;;;8.35;;
74223;SDS011;62585;49.706;18.216;2023-09-07T10:31:14;11.88;;;7.38;;
74223;SDS011;62585;49.706;18.216;2023-09-07T10:33:43;11.50;;;6.80;;
74223;SDS011;62585;49.706;18.216;2023-09-07T10:36:19;17.55;;;7.28;;
74223;SDS011;62585;49.706;18.216;2023-09-07T10:41:21;9.20;;;6.03;;
74223;SDS011;62585;49.706;18.216;2023-09-07T10:43:48;9.93;;;5.75;;
74223;SDS011;62585;49.706;18.216;2023-09-07T10:46:23;10.00;;;5.85;;
74223;SDS011;62585;49.706;18.216;2023-09-07T10:48:52;9.88;;;6.10;;
74223;SDS011;62585;49.706;18.216;2023-09-07T10:51:19;9.32;;;5.55;;
74223;SDS011;62585;49.706;18.216;2023-09-07T10:53:45;8.15;;;5.10;;
74223;SDS011;62585;49.706;18.216;2023-09-07T10:56:11;6.90;;;5.18;;
74223;SDS011;62585;49.706;18.216;2023-09-07T10:58:37;8.75;;;4.82;;
74223;SDS011;62585;49.706;18.216;2023-09-07T11:01:10;8.85;;;5.22;;
74223;SDS011;62585;49.706;18.216;2023-09-07T11:03:36;7.22;;;4.70;;
74223;SDS011;62585;49.706;18.216;2023-09-07T11:08:30;11.98;;;5.43;;
74223;SDS011;62585;49.706;18.216;2023-09-07T11:10:56;8.68;;;4.85;;
74223;SDS011;62585;49.706;18.216;2023-09-07T11:13:25;7.82;;;4.40;;
74223;SDS011;62585;49.706;18.216;2023-09-07T11:15:55;10.88;;;5.15;;
74223;SDS011;62585;49.706;18.216;2023-09-07T11:18:23;7.53;;;4.90;;
74223;SDS011;62585;49.706;18.216;2023-09-07T11:20:50;8.60;;;4.95;;
74223;SDS011;62585;49.706;18.216;2023-09-07T11:23:17;7.10;;;4.75;;
74223;SDS011;62585;49.706;18.216;2023-09-07T11:25:43;9.85;;;5.28;;
74223;SDS011;62585;49.706;18.216;2023-09-07T11:28:09;8.43;;;5.38;;
74223;SDS011;62585;49.706;18.216;2023-09-07T11:30:48;9.05;;;5.78;;
74223;SDS011;62585;49.706;18.216;2023-09-07T11:33:16;8.85;;;5.22;;
74223;SDS011;62585;49.706;18.216;2023-09-07T11:35:42;8.27;;;4.85;;
74223;SDS011;62585;49.706;18.216;2023-09-07T11:38:08;7.88;;;4.93;;
74223;SDS011;62585;49.706;18.216;2023-09-07T11:40:38;9.63;;;5.40;;
74223;SDS011;62585;49.706;18.216;2023-09-07T11:43:03;7.55;;;5.40;;
74223;SDS011;62585;49.706;18.216;2023-09-07T11:45:29;6.85;;;4.50;;
74223;SDS011;62585;49.706;18.216;2023-09-07T11:47:57;8.60;;;5.05;;
74223;SDS011;62585;49.706;18.216;2023-09-07T11:50:23;8.25;;;4.93;;
74223;SDS011;62585;49.706;18.216;2023-09-07T11:52:55;6.50;;;4.20;;
74223;SDS011;62585;49.706;18.216;2023-09-07T11:55:22;7.18;;;4.55;;
74223;SDS011;62585;49.706;18.216;2023-09-07T11:57:47;8.27;;;4.75;;
74223;SDS011;62585;49.706;18.216;2023-09-07T12:00:14;7.30;;;4.60;;
74223;SDS011;62585;49.706;18.216;2023-09-07T12:02:40;8.77;;;5.50;;
74223;SDS011;62585;49.706;18.216;2023-09-07T12:05:06;6.95;;;4.72;;
74223;SDS011;62585;49.706;18.216;2023-09-07T12:07:39;8.50;;;4.95;;
74223;SDS011;62585;49.706;18.216;2023-09-07T12:12:38;6.85;;;4.47;;
74223;SDS011;62585;49.706;18.216;2023-09-07T12:15:05;6.88;;;4.38;;
74223;SDS011;62585;49.706;18.216;2023-09-07T12:19:58;10.10;;;4.40;;
74223;SDS011;62585;49.706;18.216;2023-09-07T12:22:26;10.75;;;4.30;;
74223;SDS011;62585;49.706;18.216;2023-09-07T12:24:52;10.00;;;5.32;;
74223;SDS011;62585;49.706;18.216;2023-09-07T12:27:18;7.15;;;4.90;;
74223;SDS011;62585;49.706;18.216;2023-09-07T12:29:45;7.72;;;4.80;;
74223;SDS011;62585;49.706;18.216;2023-09-07T12:32:11;6.53;;;4.30;;
74223;SDS011;62585;49.706;18.216;2023-09-07T12:34:37;8.50;;;4.88;;
74223;SDS011;62585;49.706;18.216;2023-09-07T12:37:04;7.78;;;4.30;;
74223;SDS011;62585;49.706;18.216;2023-09-07T12:39:30;6.38;;;4.05;;
74223;SDS011;62585;49.706;18.216;2023-09-07T12:41:56;9.23;;;4.75;;
74223;SDS011;62585;49.706;18.216;2023-09-07T12:44:22;8.52;;;4.20;;
74223;SDS011;62585;49.706;18.216;2023-09-07T12:46:48;6.07;;;4.15;;
74223;SDS011;62585;49.706;18.216;2023-09-07T12:49:14;6.45;;;4.10;;
74223;SDS011;62585;49.706;18.216;2023-09-07T12:51:40;6.75;;;3.85;;
74223;SDS011;62585;49.706;18.216;2023-09-07T12:54:07;5.60;;;4.13;;
74223;SDS011;62585;49.706;18.216;2023-09-07T12:56:33;7.60;;;4.00;;
74223;SDS011;62585;49.706;18.216;2023-09-07T12:58:59;5.63;;;3.67;;
74223;SDS011;62585;49.706;18.216;2023-09-07T13:01:28;5.30;;;3.88;;
74223;SDS011;62585;49.706;18.216;2023-09-07T13:03:54;7.22;;;3.72;;
74223;SDS011;62585;49.706;18.216;2023-09-07T13:06:19;8.70;;;4.05;;
74223;SDS011;62585;49.706;18.216;2023-09-07T13:08:45;5.88;;;4.20;;
74223;SDS011;62585;49.706;18.216;2023-09-07T13:11:11;6.82;;;4.30;;
74223;SDS011;62585;49.706;18.216;2023-09-07T13:13:37;5.32;;;3.88;;
74223;SDS011;62585;49.706;18.216;2023-09-07T13:16:03;5.40;;;4.03;;
74223;SDS011;62585;49.706;18.216;2023-09-07T13:18:30;6.30;;;4.00;;
74223;SDS011;62585;49.706;18.216;2023-09-07T13:20:56;6.70;;;4.47;;
74223;SDS011;62585;49.706;18.216;2023-09-07T13:23:26;6.47;;;4.30;;
74223;SDS011;62585;49.706;18.216;2023-09-07T13:25:53;6.03;;;3.85;;
74223;SDS011;62585;49.706;18.216;2023-09-07T13:28:20;7.47;;;4.20;;
74223;SDS011;62585;49.706;18.216;2023-09-07T13:30:46;10.30;;;4.40;;
74223;SDS011;62585;49.706;18.216;2023-09-07T13:33:12;7.47;;;4.57;;
74223;SDS011;62585;49.706;18.216;2023-09-07T13:35:38;7.75;;;5.13;;
74223;SDS011;62585;49.706;18.216;2023-09-07T13:38:05;9.30;;;4.55;;
74223;SDS011;62585;49.706;18.216;2023-09-07T13:40:31;7.68;;;4.65;;
74223;SDS011;62585;49.706;18.216;2023-09-07T13:42:57;9.88;;;5.00;;
74223;SDS011;62585;49.706;18.216;2023-09-07T13:45:22;8.73;;;4.78;;
74223;SDS011;62585;49.706;18.216;2023-09-07T13:47:48;5.10;;;4.20;;
74223;SDS011;62585;49.706;18.216;2023-09-07T13:50:14;7.05;;;4.70;;
74223;SDS011;62585;49.706;18.216;2023-09-07T13:52:41;6.50;;;4.63;;
74223;SDS011;62585;49.706;18.216;2023-09-07T13:55:06;7.50;;;4.55;;
74223;SDS011;62585;49.706;18.216;2023-09-07T13:57:33;6.22;;;4.50;;
74223;SDS011;62585;49.706;18.216;2023-09-07T14:02:26;8.82;;;4.70;;
74223;SDS011;62585;49.706;18.216;2023-09-07T14:04:51;4.82;;;4.10;;
74223;SDS011;62585;49.706;18.216;2023-09-07T14:07:18;7.88;;;4.47;;
74223;SDS011;62585;49.706;18.216;2023-09-07T14:09:44;5.68;;;4.20;;
74223;SDS011;62585;49.706;18.216;2023-09-07T14:18:20;8.30;;;4.63;;
74223;SDS011;62585;49.706;18.216;2023-09-07T14:20:46;11.20;;;5.40;;
74223;SDS011;62585;49.706;18.216;2023-09-07T14:23:12;7.88;;;4.78;;
74223;SDS011;62585;49.706;18.216;2023-09-07T14:25:38;8.82;;;4.32;;
74223;SDS011;62585;49.706;18.216;2023-09-07T14:28:07;7.05;;;4.50;;
74223;SDS011;62585;49.706;18.216;2023-09-07T14:30:33;6.82;;;4.55;;
74223;SDS011;62585;49.706;18.216;2023-09-07T14:32:59;7.78;;;4.85;;
74223;SDS011;62585;49.706;18.216;2023-09-07T14:35:25;7.40;;;4.60;;
74223;SDS011;62585;49.706;18.216;2023-09-07T14:37:50;5.70;;;4.30;;
74223;SDS011;62585;49.706;18.216;2023-09-07T14:40:18;6.18;;;4.07;;
74223;SDS011;62585;49.706;18.216;2023-09-07T14:42:44;7.13;;;4.22;;
74223;SDS011;62585;49.706;18.216;2023-09-07T14:45:10;6.40;;;4.35;;
74223;SDS011;62585;49.706;18.216;2023-09-07T14:47:35;7.63;;;4.78;;
74223;SDS011;62585;49.706;18.216;2023-09-07T14:50:01;8.55;;;4.93;;
74223;SDS011;62585;49.706;18.216;2023-09-07T14:52:28;6.47;;;4.60;;
74223;SDS011;62585;49.706;18.216;2023-09-07T14:54:54;7.15;;;4.40;;
74223;SDS011;62585;49.706;18.216;2023-09-07T14:57:20;7.57;;;4.55;;
74223;SDS011;62585;49.706;18.216;2023-09-07T14:59:45;6.95;;;4.18;;